Time;durP1;ratioP1;P1;durP2;ratioP2;P2;SDS_P1;SDS_P2;PMS_P1;PMS_P2;Temp;Humidity;BMP_temperature;BMP_pressure;BME280_temperature;BME280_humidity;BME280_pressure;Samples;Min_cycle;Max_cycle;Signal;HPM_P1;HPM_P2
2022/07/26 00:01:26;;;;;;;2.80;1.77;;;;;;;;;;5073784;28;20174;-66
2022/07/26 00:03:53;;;;;;;4.07;1.70;;;;;;;;;;5073361;28;20197;-66
2022/07/26 00:06:19;;;;;;;4.50;1.97;;;;;;;;;;5072117;28;20184;-67
2022/07/26 00:08:46;;;;;;;1.90;1.40;;;;;;;;;;5073259;28;20177;-66
2022/07/26 00:11:12;;;;;;;5.30;1.63;;;;;;;;;;5072075;28;20594;-66
2022/07/26 00:13:38;;;;;;;5.33;2.47;;;;;;;;;;5073154;28;20324;-66
2022/07/26 00:16:04;;;;;;;6.57;2.00;;;;;;;;;;5073565;28;20173;-66
2022/07/26 00:18:30;;;;;;;2.47;1.67;;;;;;;;;;5073902;28;20280;-66
2022/07/26 00:20:56;;;;;;;5.60;1.83;;;;;;;;;;5073225;28;20174;-66
2022/07/26 00:23:22;;;;;;;3.47;2.00;;;;;;;;;;5073086;28;20231;-66
2022/07/26 00:25:48;;;;;;;2.33;1.80;;;;;;;;;;5073103;28;20174;-66
2022/07/26 00:28:14;;;;;;;5.10;1.80;;;;;;;;;;5073436;28;20633;-66
2022/07/26 00:30:40;;;;;;;2.63;1.70;;;;;;;;;;5073041;28;20181;-66
2022/07/26 00:33:06;;;;;;;2.60;1.97;;;;;;;;;;5072889;28;20574;-65
2022/07/26 00:35:32;;;;;;;6.07;2.30;;;;;;;;;;5073317;28;20162;-66
2022/07/26 00:37:59;;;;;;;8.90;2.07;;;;;;;;;;5071690;28;20202;-66
2022/07/26 00:40:25;;;;;;;3.57;1.90;;;;;;;;;;5071680;28;20178;-66
2022/07/26 00:42:51;;;;;;;4.20;1.97;;;;;;;;;;5072913;28;20225;-66
2022/07/26 00:45:17;;;;;;;4.40;2.03;;;;;;;;;;5073148;28;20213;-65
2022/07/26 00:47:43;;;;;;;4.63;2.20;;;;;;;;;;5071619;28;20231;-66
2022/07/26 00:50:16;;;;;;;3.03;1.80;;;;;;;;;;5073109;28;20526;-66
2022/07/26 00:52:43;;;;;;;8.10;2.13;;;;;;;;;;5072805;28;20674;-66
2022/07/26 00:55:09;;;;;;;5.23;1.90;;;;;;;;;;5072966;28;20181;-67
2022/07/26 00:57:35;;;;;;;4.97;2.47;;;;;;;;;;5072751;28;20197;-63
2022/07/26 01:00:04;;;;;;;3.97;1.87;;;;;;;;;;5072861;28;20211;-66
2022/07/26 01:02:30;;;;;;;4.37;1.97;;;;;;;;;;5072719;28;20203;-66
2022/07/26 01:04:56;;;;;;;3.80;2.00;;;;;;;;;;5072770;28;20210;-66
2022/07/26 01:07:22;;;;;;;3.37;2.03;;;;;;;;;;5072856;28;20212;-66
2022/07/26 01:09:48;;;;;;;6.63;2.53;;;;;;;;;;5072794;28;20188;-66
2022/07/26 01:12:14;;;;;;;5.70;2.63;;;;;;;;;;5071472;28;20178;-66
2022/07/26 01:14:43;;;;;;;5.37;2.20;;;;;;;;;;5072635;28;20564;-66
2022/07/26 01:17:09;;;;;;;3.37;2.10;;;;;;;;;;5071272;28;20205;-66
2022/07/26 01:19:35;;;;;;;2.83;2.10;;;;;;;;;;5073098;28;20174;-66
2022/07/26 01:22:01;;;;;;;5.77;2.30;;;;;;;;;;5072574;28;20256;-66
2022/07/26 01:24:27;;;;;;;9.03;2.40;;;;;;;;;;5072449;28;20233;-66
2022/07/26 01:26:56;;;;;;;5.70;3.00;;;;;;;;;;5073148;28;20509;-66
2022/07/26 01:29:23;;;;;;;4.33;2.47;;;;;;;;;;5072840;28;20683;-66
2022/07/26 01:31:50;;;;;;;5.33;2.40;;;;;;;;;;5072638;28;20692;-66
2022/07/26 01:34:16;;;;;;;4.33;2.47;;;;;;;;;;5072406;28;20353;-66
2022/07/26 01:36:42;;;;;;;4.63;2.20;;;;;;;;;;5072395;28;20549;-66
2022/07/26 01:39:08;;;;;;;6.47;2.20;;;;;;;;;;5071115;28;20261;-66
2022/07/26 01:41:34;;;;;;;4.83;2.50;;;;;;;;;;5073108;28;20212;-66
2022/07/26 01:44:00;;;;;;;4.70;2.40;;;;;;;;;;5075894;28;20221;-66
2022/07/26 01:46:26;;;;;;;4.90;2.73;;;;;;;;;;5074587;28;20177;-66
2022/07/26 01:48:52;;;;;;;6.17;2.43;;;;;;;;;;5075837;28;20192;-66
2022/07/26 01:51:18;;;;;;;3.97;2.10;;;;;;;;;;5075815;28;20553;-63
2022/07/26 01:53:44;;;;;;;5.10;2.43;;;;;;;;;;5075695;28;20194;-63
2022/07/26 01:56:11;;;;;;;7.70;2.30;;;;;;;;;;5075772;28;20182;-63
2022/07/26 01:58:37;;;;;;;7.93;3.33;;;;;;;;;;5074549;28;20232;-64
2022/07/26 02:01:03;;;;;;;5.87;2.20;;;;;;;;;;5075600;28;20256;-66
2022/07/26 02:03:29;;;;;;;5.17;2.20;;;;;;;;;;5075812;28;20206;-66
2022/07/26 02:05:55;;;;;;;5.53;2.37;;;;;;;;;;5076271;28;20173;-67
2022/07/26 02:08:21;;;;;;;3.30;2.10;;;;;;;;;;5074771;28;20220;-66
2022/07/26 02:10:59;;;;;;;3.27;1.90;;;;;;;;;;5076159;28;20205;-66
2022/07/26 02:13:25;;;;;;;4.37;2.20;;;;;;;;;;5078289;28;20285;-66
2022/07/26 02:15:51;;;;;;;3.07;1.90;;;;;;;;;;5074215;28;20182;-66
2022/07/26 02:18:17;;;;;;;5.63;1.93;;;;;;;;;;5075577;28;20228;-66
2022/07/26 02:20:43;;;;;;;4.80;2.00;;;;;;;;;;5075394;28;20181;-66
2022/07/26 02:23:09;;;;;;;3.83;2.30;;;;;;;;;;5075378;28;20269;-65
2022/07/26 02:25:35;;;;;;;5.33;2.23;;;;;;;;;;5074343;28;20260;-64
2022/07/26 02:28:01;;;;;;;6.87;2.70;;;;;;;;;;5074171;28;20193;-64
2022/07/26 02:30:28;;;;;;;3.73;2.53;;;;;;;;;;5074468;28;20186;-63
2022/07/26 02:32:54;;;;;;;3.33;2.13;;;;;;;;;;5075725;28;20205;-63
2022/07/26 02:35:20;;;;;;;3.33;2.03;;;;;;;;;;5075437;28;20166;-63
2022/07/26 02:37:46;;;;;;;6.63;2.03;;;;;;;;;;5074952;28;20270;-63
2022/07/26 02:40:12;;;;;;;4.60;2.57;;;;;;;;;;5075025;28;20634;-63
2022/07/26 02:42:38;;;;;;;6.93;2.30;;;;;;;;;;5073566;28;20268;-66
2022/07/26 02:45:04;;;;;;;6.23;2.50;;;;;;;;;;5073555;28;20209;-62
2022/07/26 02:47:31;;;;;;;5.07;2.10;;;;;;;;;;5074833;28;20184;-63
2022/07/26 02:49:57;;;;;;;3.47;2.20;;;;;;;;;;5075324;28;20284;-63
2022/07/26 02:52:23;;;;;;;3.80;2.30;;;;;;;;;;5074414;28;20289;-64
2022/07/26 02:54:49;;;;;;;5.23;2.50;;;;;;;;;;5074725;28;20188;-64
2022/07/26 02:57:15;;;;;;;5.63;2.37;;;;;;;;;;5075051;28;20198;-65
2022/07/26 02:59:41;;;;;;;6.63;2.57;;;;;;;;;;5074532;28;20660;-64
2022/07/26 03:02:07;;;;;;;14.73;3.00;;;;;;;;;;5074573;28;20634;-64
2022/07/26 03:04:33;;;;;;;4.77;3.20;;;;;;;;;;5074544;28;20676;-64
2022/07/26 03:06:59;;;;;;;6.57;2.37;;;;;;;;;;5074640;28;20551;-64
2022/07/26 03:09:25;;;;;;;4.40;2.77;;;;;;;;;;5074381;28;20529;-64
2022/07/26 03:11:51;;;;;;;5.77;2.20;;;;;;;;;;5074238;28;20176;-65
2022/07/26 03:14:17;;;;;;;5.60;2.27;;;;;;;;;;5074374;28;20570;-65
2022/07/26 03:16:43;;;;;;;8.03;2.60;;;;;;;;;;5074120;28;20174;-65
2022/07/26 03:19:09;;;;;;;8.90;2.53;;;;;;;;;;5072939;28;20205;-65
2022/07/26 03:21:35;;;;;;;5.83;2.50;;;;;;;;;;5072784;28;20265;-65
2022/07/26 03:24:01;;;;;;;6.27;2.37;;;;;;;;;;5072861;28;20665;-65
2022/07/26 03:26:28;;;;;;;8.40;2.40;;;;;;;;;;5074144;28;20173;-65
2022/07/26 03:28:54;;;;;;;10.53;2.67;;;;;;;;;;5072720;28;20558;-65
2022/07/26 03:31:22;;;;;;;7.37;2.70;;;;;;;;;;5074220;28;20176;-65
2022/07/26 03:33:48;;;;;;;8.10;2.50;;;;;;;;;;5073697;28;20218;-65
2022/07/26 03:36:14;;;;;;;5.93;2.73;;;;;;;;;;5073924;28;20185;-65
2022/07/26 03:38:40;;;;;;;9.47;2.70;;;;;;;;;;5073834;28;20201;-64
2022/07/26 03:41:06;;;;;;;9.60;3.20;;;;;;;;;;5073911;28;20181;-65
2022/07/26 03:43:32;;;;;;;5.40;2.70;;;;;;;;;;5073664;28;20684;-65
2022/07/26 03:45:58;;;;;;;6.80;2.70;;;;;;;;;;5073744;28;20178;-65
2022/07/26 03:48:23;;;;;;;9.83;2.47;;;;;;;;;;5072386;28;20192;-65
2022/07/26 03:50:49;;;;;;;6.03;2.60;;;;;;;;;;5073694;28;20653;-64
2022/07/26 03:53:15;;;;;;;8.13;2.53;;;;;;;;;;5073961;28;20631;-65
2022/07/26 03:58:26;;;;;;;6.90;2.90;;;;;;;;;;5073922;28;20204;-65
2022/07/26 04:00:52;;;;;;;5.93;2.73;;;;;;;;;;5073602;28;20174;-65
2022/07/26 04:03:18;;;;;;;8.03;2.77;;;;;;;;;;5072923;28;20061;-65
2022/07/26 04:05:44;;;;;;;8.87;2.93;;;;;;;;;;5073954;28;20551;-65
2022/07/26 04:08:10;;;;;;;9.67;2.80;;;;;;;;;;5073489;28;20181;-65
2022/07/26 04:10:36;;;;;;;7.27;2.93;;;;;;;;;;5073699;28;20174;-66
2022/07/26 04:13:02;;;;;;;6.83;3.20;;;;;;;;;;5074467;28;20197;-65
2022/07/26 04:15:27;;;;;;;6.07;3.00;;;;;;;;;;5074334;28;20660;-66
2022/07/26 04:17:53;;;;;;;7.13;2.90;;;;;;;;;;5072934;28;20209;-66
2022/07/26 04:20:19;;;;;;;12.87;3.47;;;;;;;;;;5074162;28;20609;-66
2022/07/26 04:22:45;;;;;;;10.70;3.53;;;;;;;;;;5073245;28;20697;-65
2022/07/26 04:25:11;;;;;;;8.67;3.07;;;;;;;;;;5073151;28;20174;-66
2022/07/26 04:27:38;;;;;;;7.17;3.27;;;;;;;;;;5073871;28;20189;-65
2022/07/26 04:30:04;;;;;;;7.80;2.93;;;;;;;;;;5074002;28;20169;-65
2022/07/26 04:32:30;;;;;;;9.80;3.57;;;;;;;;;;5073238;28;20204;-66
2022/07/26 04:34:56;;;;;;;5.40;3.17;;;;;;;;;;5073989;28;20618;-65
2022/07/26 04:37:22;;;;;;;11.27;2.87;;;;;;;;;;5072262;28;20212;-65
2022/07/26 04:39:48;;;;;;;9.87;3.30;;;;;;;;;;5072169;28;20184;-65
2022/07/26 04:42:14;;;;;;;7.40;2.60;;;;;;;;;;5073641;28;20634;-65
2022/07/26 04:44:40;;;;;;;5.70;2.83;;;;;;;;;;5073352;28;20614;-66
2022/07/26 04:47:06;;;;;;;6.20;3.30;;;;;;;;;;5071714;28;20592;-65
2022/07/26 04:49:32;;;;;;;9.30;2.80;;;;;;;;;;5071752;28;20209;-65
2022/07/26 04:51:58;;;;;;;11.90;3.43;;;;;;;;;;5071730;28;20189;-65
2022/07/26 04:54:24;;;;;;;6.10;2.77;;;;;;;;;;5097010;22;20225;-69
2022/07/26 04:56:50;;;;;;;5.17;2.90;;;;;;;;;;5073110;28;20177;-69
2022/07/26 04:59:16;;;;;;;11.03;3.20;;;;;;;;;;5073224;28;20269;-70
2022/07/26 05:01:42;;;;;;;9.40;2.93;;;;;;;;;;5073152;28;20170;-69
2022/07/26 05:04:08;;;;;;;7.03;2.90;;;;;;;;;;5073080;28;20285;-69
2022/07/26 05:06:34;;;;;;;3.93;2.50;;;;;;;;;;5073194;28;20174;-69
2022/07/26 05:09:00;;;;;;;6.43;2.83;;;;;;;;;;5073070;28;20182;-69
2022/07/26 05:11:27;;;;;;;11.03;3.10;;;;;;;;;;5054774;28;20694;-70
2022/07/26 05:13:52;;;;;;;7.97;2.80;;;;;;;;;;5072960;28;20198;-69
2022/07/26 05:16:18;;;;;;;6.93;2.60;;;;;;;;;;5074931;28;20243;-69
2022/07/26 05:18:44;;;;;;;8.43;2.63;;;;;;;;;;5077062;28;20629;-68
2022/07/26 05:21:10;;;;;;;5.00;2.57;;;;;;;;;;5059187;28;20174;-69
2022/07/26 05:23:36;;;;;;;6.50;3.17;;;;;;;;;;5077068;28;20170;-69
2022/07/26 05:26:02;;;;;;;6.17;2.93;;;;;;;;;;5076865;28;20660;-69
2022/07/26 05:28:28;;;;;;;8.07;2.53;;;;;;;;;;5077548;28;20178;-69
2022/07/26 05:30:54;;;;;;;5.90;2.70;;;;;;;;;;5058664;28;20192;-69
2022/07/26 05:33:20;;;;;;;8.20;3.03;;;;;;;;;;5076447;28;20177;-71
2022/07/26 05:35:46;;;;;;;7.00;2.97;;;;;;;;;;5076475;28;20641;-69
2022/07/26 05:38:12;;;;;;;10.00;2.80;;;;;;;;;;5076359;28;20575;-69
2022/07/26 05:40:38;;;;;;;5.60;2.90;;;;;;;;;;5077053;28;20178;-69
2022/07/26 05:43:04;;;;;;;5.13;2.70;;;;;;;;;;5058927;28;20196;-69
2022/07/26 05:45:30;;;;;;;8.60;2.90;;;;;;;;;;5076127;28;20197;-68
2022/07/26 05:47:56;;;;;;;8.23;3.27;;;;;;;;;;5058344;28;20182;-69
2022/07/26 05:50:22;;;;;;;10.57;3.07;;;;;;;;;;5058348;28;20238;-69
2022/07/26 05:52:48;;;;;;;20.10;3.63;;;;;;;;;;5057854;28;20182;-69
2022/07/26 05:55:14;;;;;;;12.97;3.50;;;;;;;;;;5075868;28;20218;-69
2022/07/26 05:57:40;;;;;;;7.47;2.87;;;;;;;;;;5057845;28;20300;-69
2022/07/26 06:00:07;;;;;;;8.40;3.00;;;;;;;;;;5076264;28;20182;-69
2022/07/26 06:02:33;;;;;;;8.73;3.30;;;;;;;;;;5076181;28;20215;-69
2022/07/26 06:04:59;;;;;;;8.80;3.00;;;;;;;;;;5057903;28;20665;-70
2022/07/26 06:07:25;;;;;;;15.30;3.07;;;;;;;;;;5075785;28;20285;-69
2022/07/26 06:09:51;;;;;;;11.57;3.97;;;;;;;;;;5057717;28;20182;-69
2022/07/26 06:12:17;;;;;;;8.90;3.37;;;;;;;;;;5057430;28;20186;-69
2022/07/26 06:14:43;;;;;;;6.50;3.10;;;;;;;;;;5057423;28;20205;-69
2022/07/26 06:17:09;;;;;;;10.60;3.43;;;;;;;;;;5057394;28;20257;-69
2022/07/26 06:19:35;;;;;;;12.03;3.77;;;;;;;;;;5057413;28;20182;-69
2022/07/26 06:22:01;;;;;;;13.93;3.23;;;;;;;;;;5057416;28;20178;-69
2022/07/26 06:24:27;;;;;;;5.63;3.13;;;;;;;;;;5075223;28;20202;-69
2022/07/26 06:26:54;;;;;;;10.97;3.33;;;;;;;;;;5056972;28;20360;-69
2022/07/26 06:29:20;;;;;;;11.70;4.17;;;;;;;;;;5057305;28;20208;-70
2022/07/26 06:31:46;;;;;;;8.53;4.23;;;;;;;;;;5075578;28;20174;-70
2022/07/26 06:34:12;;;;;;;9.53;3.90;;;;;;;;;;5057117;28;20204;-70
2022/07/26 06:36:38;;;;;;;6.57;3.30;;;;;;;;;;5057046;28;20544;-69
2022/07/26 06:39:04;;;;;;;8.73;3.83;;;;;;;;;;5074978;28;20210;-70
2022/07/26 06:41:30;;;;;;;8.63;3.40;;;;;;;;;;5075048;28;20206;-70
2022/07/26 06:43:56;;;;;;;10.33;3.77;;;;;;;;;;5057003;28;20193;-70
2022/07/26 06:46:22;;;;;;;10.90;3.70;;;;;;;;;;5074829;28;20174;-71
2022/07/26 06:48:48;;;;;;;9.07;3.77;;;;;;;;;;5057604;28;20540;-70
2022/07/26 06:51:14;;;;;;;14.83;4.40;;;;;;;;;;5074947;28;20646;-70
2022/07/26 06:53:40;;;;;;;10.97;3.67;;;;;;;;;;5074419;28;20178;-72
2022/07/26 06:56:06;;;;;;;11.53;3.60;;;;;;;;;;5075217;28;20679;-70
2022/07/26 06:58:32;;;;;;;11.50;4.07;;;;;;;;;;5074400;28;20735;-70
2022/07/26 07:00:58;;;;;;;7.23;3.70;;;;;;;;;;5074519;28;20178;-70
2022/07/26 07:03:24;;;;;;;7.13;3.73;;;;;;;;;;5074484;28;20256;-69
2022/07/26 07:05:50;;;;;;;10.17;3.73;;;;;;;;;;5074405;28;20262;-70
2022/07/26 07:08:16;;;;;;;10.53;3.83;;;;;;;;;;5074499;28;20185;-70
2022/07/26 07:10:42;;;;;;;7.10;4.30;;;;;;;;;;5056230;28;20181;-70
2022/07/26 07:13:08;;;;;;;9.80;3.73;;;;;;;;;;5074252;28;20235;-70
2022/07/26 07:15:34;;;;;;;13.97;4.13;;;;;;;;;;5056152;28;20209;-70
2022/07/26 07:18:00;;;;;;;8.43;3.40;;;;;;;;;;5074114;28;20205;-70
2022/07/26 07:20:27;;;;;;;12.27;3.90;;;;;;;;;;5056148;28;20174;-70
2022/07/26 07:22:53;;;;;;;7.67;3.73;;;;;;;;;;5056130;28;20575;-70
2022/07/26 07:25:19;;;;;;;11.13;4.23;;;;;;;;;;5074443;28;20190;-70
2022/07/26 07:27:45;;;;;;;7.03;3.70;;;;;;;;;;5074471;28;20531;-70
2022/07/26 07:30:11;;;;;;;9.30;3.73;;;;;;;;;;5073872;28;20214;-70
2022/07/26 07:32:37;;;;;;;7.43;3.70;;;;;;;;;;5073772;28;20265;-71
2022/07/26 07:35:03;;;;;;;9.33;4.00;;;;;;;;;;5073766;28;20248;-70
2022/07/26 07:37:29;;;;;;;7.53;3.50;;;;;;;;;;5073595;28;20206;-70
2022/07/26 07:39:55;;;;;;;6.67;3.80;;;;;;;;;;5073155;28;20593;-70
2022/07/26 07:42:21;;;;;;;11.43;3.50;;;;;;;;;;5073876;28;20578;-70
2022/07/26 07:44:48;;;;;;;8.67;3.53;;;;;;;;;;5073518;28;20221;-71
2022/07/26 07:47:15;;;;;;;11.10;3.50;;;;;;;;;;5055886;28;20602;-70
2022/07/26 07:49:40;;;;;;;7.40;3.23;;;;;;;;;;5055549;28;20204;-70
2022/07/26 07:52:06;;;;;;;8.37;3.60;;;;;;;;;;5073459;28;20182;-70
2022/07/26 07:54:32;;;;;;;6.63;3.50;;;;;;;;;;5073384;28;20217;-70
2022/07/26 07:56:58;;;;;;;9.53;3.60;;;;;;;;;;5055447;28;20586;-70
2022/07/26 07:59:24;;;;;;;7.10;3.23;;;;;;;;;;5073409;28;20191;-70
2022/07/26 08:01:50;;;;;;;8.93;3.60;;;;;;;;;;5073482;28;20227;-70
2022/07/26 08:04:16;;;;;;;6.73;3.40;;;;;;;;;;5073271;28;20189;-70
2022/07/26 08:06:43;;;;;;;7.23;3.30;;;;;;;;;;5073183;28;20633;-70
2022/07/26 08:09:09;;;;;;;9.03;4.10;;;;;;;;;;5073535;28;20220;-70
2022/07/26 08:11:35;;;;;;;11.13;3.77;;;;;;;;;;5072978;28;20206;-70
2022/07/26 08:14:01;;;;;;;10.40;3.43;;;;;;;;;;5072943;28;20205;-70
2022/07/26 08:16:27;;;;;;;6.10;3.40;;;;;;;;;;5073066;28;20228;-70
2022/07/26 08:18:53;;;;;;;8.13;3.03;;;;;;;;;;5073561;28;20205;-70
2022/07/26 08:21:19;;;;;;;4.63;2.93;;;;;;;;;;5073027;28;20169;-70
2022/07/26 08:23:45;;;;;;;9.70;3.50;;;;;;;;;;5073544;28;20685;-70
2022/07/26 08:26:11;;;;;;;7.53;3.10;;;;;;;;;;5055109;28;20669;-70
2022/07/26 08:28:38;;;;;;;7.73;3.30;;;;;;;;;;5073017;28;20549;-69
2022/07/26 08:31:04;;;;;;;7.70;3.73;;;;;;;;;;5072854;28;20531;-70
2022/07/26 08:33:30;;;;;;;8.60;3.60;;;;;;;;;;5054927;28;20178;-69
2022/07/26 08:35:56;;;;;;;6.73;3.80;;;;;;;;;;5072952;28;20177;-70
2022/07/26 08:38:22;;;;;;;5.90;3.40;;;;;;;;;;5072866;28;20198;-70
2022/07/26 08:40:48;;;;;;;4.97;3.70;;;;;;;;;;5072900;28;20186;-70
2022/07/26 08:43:14;;;;;;;5.00;3.47;;;;;;;;;;5072906;28;20269;-70
2022/07/26 08:45:40;;;;;;;5.93;3.73;;;;;;;;;;5054890;28;20194;-70
2022/07/26 08:48:06;;;;;;;9.93;4.43;;;;;;;;;;5072880;28;20174;-70
2022/07/26 08:50:32;;;;;;;6.77;4.53;;;;;;;;;;5075224;28;20177;-70
2022/07/26 08:53:05;;;;;;;8.03;5.10;;;;;;;;;;5077174;28;20178;-70
2022/07/26 08:55:31;;;;;;;8.13;5.13;;;;;;;;;;5058971;28;20242;-70
2022/07/26 08:57:57;;;;;;;7.43;5.20;;;;;;;;;;5076942;28;20684;-70
2022/07/26 09:00:30;;;;;;;8.00;5.87;;;;;;;;;;5076882;28;20260;-70
2022/07/26 09:02:57;;;;;;;10.93;6.53;;;;;;;;;;5076921;28;20666;-70
2022/07/26 09:05:33;;;;;;;8.23;6.50;;;;;;;;;;5076822;28;20251;-70
2022/07/26 09:08:00;;;;;;;7.00;6.20;;;;;;;;;;5076897;28;20226;-70
2022/07/26 09:10:26;;;;;;;7.73;5.80;;;;;;;;;;5076665;28;20182;-70
2022/07/26 09:12:56;;;;;;;9.90;6.43;;;;;;;;;;5076625;28;20177;-70
2022/07/26 09:15:24;;;;;;;7.10;6.20;;;;;;;;;;5058384;28;20202;-70
2022/07/26 09:17:53;;;;;;;8.60;6.10;;;;;;;;;;5076572;28;20202;-70
2022/07/26 09:20:20;;;;;;;7.93;5.00;;;;;;;;;;5076141;28;20202;-70
2022/07/26 09:23:00;;;;;;;8.33;5.00;;;;;;;;;;5058352;28;20243;-70
2022/07/26 09:25:27;;;;;;;9.10;3.90;;;;;;;;;;5076106;28;20202;-70
2022/07/26 09:27:53;;;;;;;4.57;3.83;;;;;;;;;;5076735;28;20243;-69
2022/07/26 09:30:20;;;;;;;6.00;3.87;;;;;;;;;;5076192;28;20181;-69
2022/07/26 09:33:02;;;;;;;8.83;4.00;;;;;;;;;;5076125;28;20224;-69
2022/07/26 09:35:30;;;;;;;3.73;3.37;;;;;;;;;;5058135;28;20275;-69
2022/07/26 09:37:57;;;;;;;6.40;3.60;;;;;;;;;;5057972;28;20201;-70
2022/07/26 09:40:23;;;;;;;10.10;3.57;;;;;;;;;;5076023;28;20181;-69
2022/07/26 09:42:55;;;;;;;4.87;3.23;;;;;;;;;;5057989;28;20205;-69
2022/07/26 09:45:21;;;;;;;4.70;3.13;;;;;;;;;;5075832;28;20651;-70
2022/07/26 09:47:47;;;;;;;4.80;2.63;;;;;;;;;;5057918;28;20657;-69
2022/07/26 09:50:15;;;;;;;4.87;3.10;;;;;;;;;;5076049;28;20202;-69
2022/07/26 09:52:56;;;;;;;6.10;3.13;;;;;;;;;;5057776;28;20267;-69
2022/07/26 09:55:22;;;;;;;4.03;3.07;;;;;;;;;;5057705;28;20252;-69
2022/07/26 09:57:50;;;;;;;4.20;3.00;;;;;;;;;;5075621;28;20634;-69
2022/07/26 10:00:16;;;;;;;6.00;3.00;;;;;;;;;;5075683;28;20181;-70
2022/07/26 10:02:42;;;;;;;3.80;2.80;;;;;;;;;;5056846;28;20182;-69
2022/07/26 10:05:08;;;;;;;3.40;3.07;;;;;;;;;;5057513;28;20200;-69
2022/07/26 10:07:34;;;;;;;4.60;2.70;;;;;;;;;;5075711;28;20193;-69
2022/07/26 10:10:03;;;;;;;3.83;2.40;;;;;;;;;;5075918;28;20208;-69
2022/07/26 10:12:30;;;;;;;3.50;2.43;;;;;;;;;;5076512;28;20603;-69
2022/07/26 10:14:56;;;;;;;2.77;2.40;;;;;;;;;;5057354;28;20213;-69
2022/07/26 10:17:28;;;;;;;3.07;2.60;;;;;;;;;;5075487;28;20201;-69
2022/07/26 10:20:00;;;;;;;2.57;2.30;;;;;;;;;;5075163;28;20174;-69
2022/07/26 10:22:34;;;;;;;4.63;3.03;;;;;;;;;;5075085;28;20174;-69
2022/07/26 10:25:18;;;;;;;2.40;2.20;;;;;;;;;;5057124;28;20666;-69
2022/07/26 10:27:45;;;;;;;4.87;2.60;;;;;;;;;;5057112;28;20672;-69
2022/07/26 10:30:17;;;;;;;4.50;2.10;;;;;;;;;;5075341;28;20174;-69
2022/07/26 10:33:01;;;;;;;2.43;2.23;;;;;;;;;;5075075;28;20180;-69
2022/07/26 10:35:35;;;;;;;2.67;2.47;;;;;;;;;;5056993;28;20678;-69
2022/07/26 10:38:04;;;;;;;2.37;2.10;;;;;;;;;;5075495;28;20273;-67
2022/07/26 10:40:31;;;;;;;5.20;2.37;;;;;;;;;;5056873;28;20263;-67
2022/07/26 10:43:10;;;;;;;1.77;1.60;;;;;;;;;;5074764;28;20545;-67
2022/07/26 10:45:37;;;;;;;1.43;1.30;;;;;;;;;;5056792;28;20270;-68
2022/07/26 10:48:09;;;;;;;1.13;1.10;;;;;;;;;;5075236;28;20182;-68
2022/07/26 10:50:35;;;;;;;1.17;0.90;;;;;;;;;;5074705;28;20169;-67
2022/07/26 10:53:02;;;;;;;1.00;1.00;;;;;;;;;;5074889;28;20184;-68
2022/07/26 10:55:28;;;;;;;2.00;1.00;;;;;;;;;;5074313;28;20309;-69
2022/07/26 10:57:54;;;;;;;0.87;0.87;;;;;;;;;;5056527;28;20292;-69
2022/07/26 11:00:22;;;;;;;1.23;1.10;;;;;;;;;;5074517;28;20185;-69
2022/07/26 11:02:49;;;;;;;1.33;1.10;;;;;;;;;;5074381;28;20185;-69
2022/07/26 11:05:16;;;;;;;1.83;1.13;;;;;;;;;;5074202;28;20197;-69
2022/07/26 11:07:52;;;;;;;1.00;1.00;;;;;;;;;;5074276;28;20265;-69
2022/07/26 11:10:24;;;;;;;1.07;1.00;;;;;;;;;;5074266;28;20184;-69
2022/07/26 11:13:00;;;;;;;1.87;1.10;;;;;;;;;;5074173;28;20606;-69
2022/07/26 11:15:26;;;;;;;2.40;2.13;;;;;;;;;;5056162;28;20205;-69
2022/07/26 11:17:52;;;;;;;1.73;1.63;;;;;;;;;;5073949;28;20202;-68
2022/07/26 11:20:24;;;;;;;1.40;1.30;;;;;;;;;;5074036;28;20178;-69
2022/07/26 11:22:50;;;;;;;1.10;1.10;;;;;;;;;;5073927;28;20210;-69
2022/07/26 11:25:20;;;;;;;1.10;1.00;;;;;;;;;;5055950;28;20229;-69
2022/07/26 11:27:59;;;;;;;1.30;1.00;;;;;;;;;;5074325;28;20198;-69
2022/07/26 11:30:25;;;;;;;1.20;1.10;;;;;;;;;;5074001;28;20273;-68
2022/07/26 11:32:52;;;;;;;1.30;0.97;;;;;;;;;;5073802;28;20213;-68
2022/07/26 11:35:17;;;;;;;0.83;0.83;;;;;;;;;;5073858;28;20204;-69
2022/07/26 11:37:57;;;;;;;0.87;0.87;;;;;;;;;;5073510;28;20205;-72
2022/07/26 11:40:42;;;;;;;0.80;0.80;;;;;;;;;;5074179;28;20173;-69
2022/07/26 11:43:08;;;;;;;1.10;0.90;;;;;;;;;;5073653;28;20236;-68
2022/07/26 11:45:34;;;;;;;0.90;0.90;;;;;;;;;;5055541;28;20201;-68
2022/07/26 11:48:00;;;;;;;1.23;0.90;;;;;;;;;;5073593;28;20542;-68
2022/07/26 11:50:26;;;;;;;0.90;0.90;;;;;;;;;;5074480;28;20277;-68
2022/07/26 11:52:52;;;;;;;0.80;0.80;;;;;;;;;;5055772;28;20230;-68
2022/07/26 11:55:29;;;;;;;0.80;0.80;;;;;;;;;;5073497;28;20213;-68
2022/07/26 11:57:55;;;;;;;0.90;0.90;;;;;;;;;;5055704;28;20209;-68
2022/07/26 12:00:22;;;;;;;1.70;1.00;;;;;;;;;;5073649;28;20185;-69
2022/07/26 12:02:48;;;;;;;1.70;1.03;;;;;;;;;;5055794;28;20182;-68
2022/07/26 12:05:19;;;;;;;1.00;1.00;;;;;;;;;;5055522;28;20198;-68
2022/07/26 12:08:05;;;;;;;1.20;1.10;;;;;;;;;;5073403;28;20177;-68
2022/07/26 12:10:31;;;;;;;1.27;1.00;;;;;;;;;;5055356;28;20231;-68
2022/07/26 12:13:11;;;;;;;1.50;1.40;;;;;;;;;;5073475;28;20182;-68
2022/07/26 12:15:47;;;;;;;0.97;0.90;;;;;;;;;;5073460;28;20206;-69
2022/07/26 12:18:20;;;;;;;1.77;1.40;;;;;;;;;;5055323;28;20239;-68
2022/07/26 12:20:59;;;;;;;1.03;1.03;;;;;;;;;;5073534;28;20586;-69
2022/07/26 12:23:25;;;;;;;2.67;1.20;;;;;;;;;;5073369;28;20176;-69
2022/07/26 12:25:51;;;;;;;1.43;1.33;;;;;;;;;;5073366;28;20190;-68
2022/07/26 12:28:37;;;;;;;6.43;1.80;;;;;;;;;;5069199;22;20215;-69
2022/07/26 12:31:03;;;;;;;1.77;1.40;;;;;;;;;;5055182;28;20711;-69
2022/07/26 12:33:29;;;;;;;1.27;1.17;;;;;;;;;;5055346;28;20182;-68
2022/07/26 12:36:00;;;;;;;1.30;1.20;;;;;;;;;;5055351;28;20235;-69
2022/07/26 12:38:39;;;;;;;1.70;1.20;;;;;;;;;;5073739;28;20652;-69
2022/07/26 12:41:05;;;;;;;0.97;0.97;;;;;;;;;;5055157;28;20552;-68
2022/07/26 12:43:38;;;;;;;1.07;1.00;;;;;;;;;;5073079;28;20181;-68
2022/07/26 12:46:04;;;;;;;1.73;1.20;;;;;;;;;;5055108;28;20177;-68
2022/07/26 12:48:30;;;;;;;1.43;1.10;;;;;;;;;;5054950;28;20688;-68
2022/07/26 12:50:57;;;;;;;2.10;1.20;;;;;;;;;;5072988;28;20182;-68
2022/07/26 12:53:23;;;;;;;1.23;1.10;;;;;;;;;;5073359;28;20188;-68
2022/07/26 12:55:49;;;;;;;1.67;1.10;;;;;;;;;;5073781;28;20181;-68
2022/07/26 12:58:15;;;;;;;2.07;1.37;;;;;;;;;;5054779;28;20206;-69
2022/07/26 13:00:40;;;;;;;1.50;1.00;;;;;;;;;;5073045;28;20174;-68
2022/07/26 13:03:06;;;;;;;1.10;1.10;;;;;;;;;;5055068;28;20173;-68
2022/07/26 13:05:32;;;;;;;1.30;1.20;;;;;;;;;;5055053;28;20205;-68
2022/07/26 13:07:58;;;;;;;1.67;1.57;;;;;;;;;;5054965;28;20208;-68
2022/07/26 13:10:24;;;;;;;1.10;1.10;;;;;;;;;;5055250;28;20185;-68
2022/07/26 13:12:50;;;;;;;1.63;0.97;;;;;;;;;;5072978;28;20189;-68
2022/07/26 13:15:16;;;;;;;1.20;1.10;;;;;;;;;;5054862;28;20269;-68
2022/07/26 13:17:42;;;;;;;1.47;1.20;;;;;;;;;;5073066;28;20202;-68
2022/07/26 13:20:08;;;;;;;1.70;1.30;;;;;;;;;;5054944;28;20198;-68
2022/07/26 13:22:35;;;;;;;1.93;1.20;;;;;;;;;;5054840;28;20182;-68
2022/07/26 13:25:01;;;;;;;1.30;1.20;;;;;;;;;;5054907;28;20185;-68
2022/07/26 13:27:27;;;;;;;2.40;1.23;;;;;;;;;;5072724;28;20177;-68
2022/07/26 13:29:53;;;;;;;1.40;1.30;;;;;;;;;;5054791;28;20308;-68
2022/07/26 13:32:19;;;;;;;1.20;1.10;;;;;;;;;;5055006;28;20193;-70
2022/07/26 13:34:45;;;;;;;2.90;1.40;;;;;;;;;;5072642;28;20182;-68
2022/07/26 13:37:11;;;;;;;2.07;1.40;;;;;;;;;;5073845;28;20178;-68
2022/07/26 13:39:37;;;;;;;1.93;1.23;;;;;;;;;;5076559;28;20194;-68
2022/07/26 13:42:03;;;;;;;2.40;1.30;;;;;;;;;;5076396;28;20540;-68
2022/07/26 13:44:29;;;;;;;1.77;1.20;;;;;;;;;;5076394;28;20173;-68
2022/07/26 13:46:55;;;;;;;5.27;1.50;;;;;;;;;;5058334;28;20178;-68
2022/07/26 13:49:21;;;;;;;1.73;1.30;;;;;;;;;;5076384;28;20197;-68
2022/07/26 13:51:57;;;;;;;1.53;1.00;;;;;;;;;;5076341;28;20178;-68
2022/07/26 13:54:24;;;;;;;3.63;1.60;;;;;;;;;;5082375;28;20173;-68
2022/07/26 13:56:51;;;;;;;2.90;1.30;;;;;;;;;;5081552;28;20311;-68
2022/07/26 13:59:17;;;;;;;3.53;1.43;;;;;;;;;;5081463;28;20233;-68
2022/07/26 14:01:43;;;;;;;3.13;1.33;;;;;;;;;;5081048;28;20174;-69
2022/07/26 14:04:09;;;;;;;1.47;1.30;;;;;;;;;;5078546;28;20205;-69
2022/07/26 14:06:35;;;;;;;2.20;1.30;;;;;;;;;;5077159;28;20201;-69
2022/07/26 14:09:03;;;;;;;1.87;1.27;;;;;;;;;;5076435;28;20193;-68
2022/07/26 14:11:29;;;;;;;1.40;1.07;;;;;;;;;;5057917;28;20186;-68
2022/07/26 14:13:55;;;;;;;1.20;1.10;;;;;;;;;;5058167;28;20186;-70
2022/07/26 14:16:21;;;;;;;1.20;1.10;;;;;;;;;;5075980;28;20184;-69
2022/07/26 14:18:48;;;;;;;1.10;1.00;;;;;;;;;;5075675;28;20217;-69
2022/07/26 14:21:14;;;;;;;1.03;0.90;;;;;;;;;;5075853;28;20547;-69
2022/07/26 14:23:40;;;;;;;1.07;1.00;;;;;;;;;;5076125;28;20170;-69
2022/07/26 14:26:06;;;;;;;1.07;1.00;;;;;;;;;;5075449;28;20166;-69
2022/07/26 14:28:32;;;;;;;2.30;1.27;;;;;;;;;;5057292;28;20370;-69
2022/07/26 14:30:58;;;;;;;1.07;0.97;;;;;;;;;;5057468;28;20177;-69
2022/07/26 14:33:24;;;;;;;0.73;0.73;;;;;;;;;;5075547;28;20174;-69
2022/07/26 14:35:50;;;;;;;1.60;0.90;;;;;;;;;;5075368;28;20256;-69
2022/07/26 14:38:16;;;;;;;0.93;0.93;;;;;;;;;;5057229;28;20711;-68
2022/07/26 14:40:42;;;;;;;2.83;1.13;;;;;;;;;;5075906;28;20239;-68
2022/07/26 14:43:08;;;;;;;0.90;0.90;;;;;;;;;;5075822;28;20189;-68